Time;durP1;ratioP1;P1;durP2;ratioP2;P2;SDS_P1;SDS_P2;PMS_P1;PMS_P2;Temp;Humidity;BMP_temperature;BMP_pressure;BME280_temperature;BME280_humidity;BME280_pressure;Samples;Min_cycle;Max_cycle;Signal;HPM_P1;HPM_P2
2022/11/13 00:01:13;;;;;;;30.67;15.55;;;8.80;88.10;;;;;;5027588;28;20447;-70
2022/11/13 00:04:00;;;;;;;19.37;13.03;;;8.80;87.60;;;;;;5025106;28;20647;-71
2022/11/13 00:06:46;;;;;;;21.80;14.10;;;8.70;87.70;;;;;;5027506;28;20486;-71
2022/11/13 00:09:35;;;;;;;20.27;13.70;;;8.80;87.80;;;;;;5021874;28;20470;-70
2022/11/13 00:12:21;;;;;;;27.83;16.20;;;8.70;87.50;;;;;;5023911;28;20217;-71
2022/11/13 00:15:08;;;;;;;40.10;16.67;;;8.70;87.60;;;;;;5023230;28;20530;-70
2022/11/13 00:17:55;;;;;;;26.83;14.80;;;8.70;87.70;;;;;;5024155;28;20475;-70
2022/11/13 00:20:41;;;;;;;28.07;15.40;;;8.70;87.60;;;;;;5025172;28;20467;-72
2022/11/13 00:23:28;;;;;;;25.30;14.85;;;8.70;87.30;;;;;;5020907;28;20475;-70
2022/11/13 00:26:18;;;;;;;27.65;14.13;;;8.60;87.40;;;;;;5023808;28;20232;-69
2022/11/13 00:29:05;;;;;;;22.70;14.40;;;8.60;87.40;;;;;;5028097;28;20213;-72
2022/11/13 00:31:51;;;;;;;23.88;14.90;;;8.60;87.60;;;;;;5021545;28;20456;-71
2022/11/13 00:34:37;;;;;;;22.45;14.35;;;8.60;87.50;;;;;;5024634;28;20220;-71
2022/11/13 00:37:33;;;;;;;18.38;13.10;;;8.60;87.40;;;;;;5020688;28;20229;-72
2022/11/13 00:40:20;;;;;;;23.38;14.77;;;8.60;87.40;;;;;;5024358;28;20216;-71
2022/11/13 00:43:07;;;;;;;34.17;14.95;;;8.60;87.40;;;;;;5025969;28;20239;-70
2022/11/13 00:45:54;;;;;;;43.37;13.80;;;8.50;87.30;;;;;;5027164;28;20740;-70
2022/11/13 00:48:40;;;;;;;27.47;14.40;;;8.50;87.00;;;;;;5029391;28;20475;-70
2022/11/13 00:51:27;;;;;;;34.97;14.25;;;8.40;87.00;;;;;;5026477;28;20538;-70
2022/11/13 00:54:13;;;;;;;32.40;13.70;;;8.40;87.30;;;;;;5023151;28;20216;-71
2022/11/13 00:56:59;;;;;;;21.20;12.85;;;8.40;87.30;;;;;;5027499;28;21004;-70
2022/11/13 00:59:47;;;;;;;18.50;12.18;;;8.40;87.40;;;;;;5030218;28;20215;-69
2022/11/13 01:02:34;;;;;;;17.30;12.57;;;8.50;87.40;;;;;;5029841;28;20247;-70
2022/11/13 01:05:21;;;;;;;27.77;12.10;;;8.50;87.40;;;;;;5026379;28;20438;-73
2022/11/13 01:08:09;;;;;;;19.07;11.70;;;8.50;87.30;;;;;;5028218;28;21101;-70
2022/11/13 01:10:55;;;;;;;27.23;13.32;;;8.50;87.20;;;;;;5027500;28;20448;-70
2022/11/13 01:13:44;;;;;;;19.55;13.68;;;8.50;87.10;;;;;;5031326;28;20215;-71
2022/11/13 01:16:31;;;;;;;18.90;12.70;;;8.50;87.30;;;;;;5028367;28;20604;-70
2022/11/13 01:19:18;;;;;;;24.67;13.53;;;8.60;87.20;;;;;;5023065;28;20340;-71
2022/11/13 01:22:04;;;;;;;38.88;13.02;;;8.60;87.10;;;;;;5023283;28;20938;-70
2022/11/13 01:24:51;;;;;;;23.80;12.97;;;8.60;86.90;;;;;;5023698;28;20351;-70
2022/11/13 01:27:38;;;;;;;26.33;12.93;;;8.50;86.80;;;;;;5027479;28;20477;-71
2022/11/13 01:30:24;;;;;;;52.63;14.20;;;8.50;86.80;;;;;;5026869;28;20246;-70
2022/11/13 01:33:12;;;;;;;31.67;13.15;;;8.40;86.70;;;;;;5025646;28;20448;-70
2022/11/13 01:36:03;;;;;;;21.13;13.80;;;8.40;86.50;;;;;;5029698;28;20232;-70
2022/11/13 01:38:50;;;;;;;61.22;14.10;;;8.30;86.70;;;;;;5025622;28;20209;-72
2022/11/13 01:41:37;;;;;;;17.77;13.20;;;8.30;86.80;;;;;;5030959;28;20212;-70
2022/11/13 01:44:23;;;;;;;24.13;13.98;;;8.30;86.80;;;;;;5026443;28;20300;-69
2022/11/13 01:47:09;;;;;;;26.52;13.10;;;8.30;87.10;;;;;;5025526;28;20232;-70
2022/11/13 01:50:00;;;;;;;38.35;14.60;;;8.40;87.00;;;;;;5029221;28;20347;-70
2022/11/13 01:52:47;;;;;;;30.23;13.38;;;8.40;86.90;;;;;;5026410;28;21066;-71
2022/11/13 01:55:34;;;;;;;40.15;15.07;;;8.40;86.80;;;;;;5025164;28;20216;-70
2022/11/13 01:58:20;;;;;;;24.15;13.63;;;8.40;86.60;;;;;;5027446;28;20662;-71
2022/11/13 02:01:07;;;;;;;22.63;13.65;;;8.30;86.80;;;;;;5026176;28;20255;-70
2022/11/13 02:03:53;;;;;;;20.45;12.90;;;8.40;87.00;;;;;;5022396;28;20231;-70
2022/11/13 02:06:45;;;;;;;30.27;14.52;;;8.40;86.90;;;;;;5024484;28;20600;-70
2022/11/13 02:09:36;;;;;;;29.90;13.63;;;8.40;86.70;;;;;;5027381;28;20267;-70
2022/11/13 02:12:29;;;;;;;33.65;14.43;;;8.40;86.60;;;;;;5024896;28;20217;-70
2022/11/13 02:15:16;;;;;;;28.15;13.38;;;8.30;86.80;;;;;;5020000;28;20216;-70
2022/11/13 02:18:03;;;;;;;35.50;14.60;;;8.30;86.70;;;;;;5023382;28;20408;-72
2022/11/13 02:21:00;;;;;;;21.20;14.10;;;8.30;86.80;;;;;;5021867;28;20224;-70
2022/11/13 02:23:56;;;;;;;43.23;15.17;;;8.40;86.80;;;;;;5024899;28;20818;-70
2022/11/13 02:26:45;;;;;;;61.20;15.68;;;8.30;86.60;;;;;;5024560;28;21019;-71
2022/11/13 02:29:32;;;;;;;35.13;15.30;;;8.30;86.40;;;;;;5029958;28;20216;-71
2022/11/13 02:32:19;;;;;;;53.40;15.75;;;8.20;86.40;;;;;;5028066;28;20216;-70
2022/11/13 02:35:06;;;;;;;60.20;16.42;;;8.10;86.40;;;;;;5025099;28;20208;-72
2022/11/13 02:37:52;;;;;;;39.30;15.85;;;8.10;86.40;;;;;;5025095;28;20239;-71
2022/11/13 02:40:39;;;;;;;56.10;16.70;;;8.00;86.80;;;;;;5025770;28;20227;-71
2022/11/13 02:43:26;;;;;;;24.38;14.73;;;8.00;86.80;;;;;;5020499;28;20608;-70
2022/11/13 02:46:13;;;;;;;33.35;15.73;;;8.00;86.80;;;;;;5022984;28;20220;-70
2022/11/13 02:49:00;;;;;;;27.90;16.13;;;8.00;86.90;;;;;;5026336;28;20219;-70
2022/11/13 02:51:46;;;;;;;25.55;14.25;;;8.00;87.00;;;;;;5022170;28;20219;-72
2022/11/13 02:54:33;;;;;;;23.45;13.57;;;8.10;86.90;;;;;;5018565;28;20344;-71
2022/11/13 02:57:19;;;;;;;57.00;15.70;;;8.10;86.80;;;;;;5019614;28;20351;-70
2022/11/13 03:00:09;;;;;;;70.75;17.75;;;8.10;86.90;;;;;;5024841;28;20351;-70
2022/11/13 03:03:00;;;;;;;102.72;18.42;;;8.00;86.70;;;;;;5017192;28;20284;-70
2022/11/13 03:05:48;;;;;;;84.95;17.92;;;7.90;86.60;;;;;;5019510;28;20283;-70
2022/11/13 03:08:35;;;;;;;59.45;17.25;;;7.90;86.60;;;;;;5017119;28;20726;-71
2022/11/13 03:11:22;;;;;;;28.90;14.98;;;7.80;86.80;;;;;;5022474;28;20220;-70
2022/11/13 03:14:09;;;;;;;60.95;15.52;;;7.80;86.70;;;;;;5023736;28;20206;-72
2022/11/13 03:16:57;;;;;;;90.32;18.38;;;7.70;86.60;;;;;;5020402;28;20231;-71
2022/11/13 03:19:44;;;;;;;115.78;20.55;;;7.70;86.90;;;;;;5022303;28;20219;-70
2022/11/13 03:22:30;;;;;;;55.30;17.95;;;7.60;86.90;;;;;;5022551;28;20330;-70
2022/11/13 03:25:17;;;;;;;140.52;21.67;;;7.60;87.00;;;;;;5018785;28;20397;-70
2022/11/13 03:28:04;;;;;;;127.07;20.27;;;7.70;87.00;;;;;;5023006;28;20232;-71
2022/11/13 03:30:50;;;;;;;53.65;15.43;;;7.60;86.80;;;;;;5021743;28;20607;-70
2022/11/13 03:33:38;;;;;;;39.72;16.70;;;7.60;86.90;;;;;;5027113;28;20228;-70
2022/11/13 03:36:25;;;;;;;29.80;15.32;;;7.60;87.10;;;;;;5022927;28;20236;-70
2022/11/13 03:39:11;;;;;;;42.00;15.25;;;7.60;86.90;;;;;;5023154;28;20216;-70
2022/11/13 03:41:58;;;;;;;124.95;19.27;;;7.60;87.00;;;;;;5023175;28;20260;-71
2022/11/13 03:44:44;;;;;;;53.60;15.52;;;7.60;87.00;;;;;;5025160;28;20235;-71
2022/11/13 03:47:31;;;;;;;68.85;17.30;;;7.50;86.80;;;;;;5020676;28;20948;-70
2022/11/13 03:50:18;;;;;;;99.40;18.60;;;7.50;86.90;;;;;;5020433;28;20283;-70
2022/11/13 03:53:05;;;;;;;82.90;16.20;;;7.40;87.00;;;;;;5021925;28;20215;-70
2022/11/13 03:55:52;;;;;;;81.28;15.93;;;7.40;87.00;;;;;;5025202;28;20286;-70
2022/11/13 03:58:38;;;;;;;122.43;17.70;;;7.40;87.00;;;;;;5020950;28;20397;-72
2022/11/13 04:01:26;;;;;;;79.97;16.17;;;7.40;86.80;;;;;;5027220;28;20267;-70
2022/11/13 04:04:12;;;;;;;95.07;18.40;;;7.30;87.00;;;;;;5021093;28;20220;-71
2022/11/13 04:07:00;;;;;;;28.67;13.23;;;7.30;87.00;;;;;;5022367;28;20251;-71
2022/11/13 04:09:47;;;;;;;34.83;14.50;;;7.30;87.00;;;;;;5021588;28;20220;-70
2022/11/13 04:12:34;;;;;;;18.30;12.73;;;7.30;87.10;;;;;;5024630;28;20887;-70
2022/11/13 04:15:21;;;;;;;21.23;12.38;;;7.40;87.30;;;;;;5025447;28;20216;-70
2022/11/13 04:18:07;;;;;;;31.50;13.80;;;7.50;87.50;;;;;;5025783;28;20364;-70
2022/11/13 04:20:59;;;;;;;29.33;13.80;;;7.50;87.20;;;;;;5027254;28;20349;-69
2022/11/13 04:23:47;;;;;;;81.32;13.73;;;7.60;87.20;;;;;;5031876;28;20226;-71
2022/11/13 04:26:34;;;;;;;65.30;14.88;;;7.60;87.00;;;;;;5023765;28;20870;-71
2022/11/13 04:29:20;;;;;;;108.75;16.20;;;7.50;86.80;;;;;;5030448;28;20212;-71
2022/11/13 04:32:07;;;;;;;40.70;13.13;;;7.50;86.80;;;;;;5027147;28;20212;-70
2022/11/13 04:34:54;;;;;;;69.35;13.73;;;7.40;86.90;;;;;;5025328;28;21207;-70
2022/11/13 04:37:40;;;;;;;26.00;12.80;;;7.40;86.90;;;;;;5026181;28;20877;-72
2022/11/13 04:40:28;;;;;;;26.52;14.20;;;7.40;86.90;;;;;;5031024;28;20247;-71
2022/11/13 04:43:14;;;;;;;50.88;13.30;;;7.40;87.00;;;;;;5027089;28;20229;-71
2022/11/13 04:46:00;;;;;;;47.33;13.23;;;7.40;87.00;;;;;;5016452;28;20294;-71
2022/11/13 04:48:46;;;;;;;55.17;13.38;;;7.50;87.00;;;;;;5019971;28;20721;-71
2022/11/13 04:51:33;;;;;;;45.65;12.50;;;7.50;86.90;;;;;;5025365;28;20288;-70
2022/11/13 04:54:19;;;;;;;133.48;18.73;;;7.40;86.80;;;;;;5023494;28;21054;-70
2022/11/13 04:57:15;;;;;;;68.53;14.98;;;7.40;86.70;;;;;;5027089;28;20712;-70
2022/11/13 05:00:02;;;;;;;59.47;13.70;;;7.40;86.40;;;;;;5024589;28;20223;-70
2022/11/13 05:02:49;;;;;;;48.38;12.23;;;7.30;86.50;;;;;;5027030;28;20271;-70
2022/11/13 05:05:35;;;;;;;84.00;14.15;;;7.30;86.60;;;;;;5026738;28;20250;-71
2022/11/13 05:08:21;;;;;;;84.60;13.10;;;7.30;86.70;;;;;;5023837;28;20319;-72
2022/11/13 05:11:08;;;;;;;68.97;12.90;;;7.30;86.80;;;;;;5025674;28;20686;-70
2022/11/13 05:13:55;;;;;;;48.30;12.60;;;7.30;86.60;;;;;;5025659;28;20319;-70
2022/11/13 05:16:50;;;;;;;51.60;12.10;;;7.20;86.40;;;;;;5025100;28;20244;-70
2022/11/13 05:19:37;;;;;;;39.97;12.35;;;7.10;86.30;;;;;;5028739;28;20212;-70
2022/11/13 05:22:23;;;;;;;22.20;11.88;;;7.10;86.50;;;;;;5029636;28;20288;-69
2022/11/13 05:25:10;;;;;;;40.13;12.15;;;7.10;86.70;;;;;;5024568;28;20248;-70
2022/11/13 05:27:58;;;;;;;20.35;11.00;;;7.10;86.70;;;;;;5026959;28;20613;-70
2022/11/13 05:30:46;;;;;;;24.05;10.88;;;7.10;86.70;;;;;;5026432;28;20224;-70
2022/11/13 05:33:32;;;;;;;29.35;11.05;;;7.20;86.60;;;;;;5024091;28;20538;-71
2022/11/13 05:36:20;;;;;;;44.05;11.10;;;7.20;86.50;;;;;;5028113;28;20359;-70
2022/11/13 05:39:07;;;;;;;19.85;10.95;;;7.10;86.30;;;;;;5023772;28;20577;-70
2022/11/13 05:41:53;;;;;;;36.03;11.10;;;7.10;86.30;;;;;;5020979;28;20256;-71
2022/11/13 05:44:40;;;;;;;25.02;10.55;;;7.10;86.40;;;;;;5030974;28;20227;-71
2022/11/13 05:47:28;;;;;;;19.92;10.13;;;7.10;86.50;;;;;;5030983;28;20419;-72
2022/11/13 05:50:15;;;;;;;23.48;11.65;;;7.10;86.50;;;;;;5024383;28;20728;-70
2022/11/13 05:53:01;;;;;;;19.92;11.52;;;7.20;86.60;;;;;;5018270;28;20213;-70
2022/11/13 05:55:48;;;;;;;18.48;11.05;;;7.20;86.40;;;;;;5024942;28;20209;-70
2022/11/13 05:58:34;;;;;;;67.00;11.00;;;7.20;86.40;;;;;;5022903;28;20251;-71
2022/11/13 06:01:23;;;;;;;18.35;9.65;;;7.20;86.40;;;;;;5027138;28;20216;-70
2022/11/13 06:04:11;;;;;;;22.63;8.95;;;7.20;86.20;;;;;;5029510;28;20728;-71
2022/11/13 06:06:57;;;;;;;116.82;11.38;;;7.20;86.20;;;;;;5025272;28;20236;-70
2022/11/13 06:09:43;;;;;;;17.88;8.65;;;7.20;86.10;;;;;;5014654;28;20212;-71
2022/11/13 06:12:30;;;;;;;15.15;9.98;;;7.10;85.70;;;;;;5024781;28;20584;-70
2022/11/13 06:15:17;;;;;;;25.50;9.82;;;7.10;85.80;;;;;;5025352;28;20331;-71
2022/11/13 06:18:03;;;;;;;14.65;9.68;;;7.10;85.90;;;;;;5026268;28;20243;-71
2022/11/13 06:20:51;;;;;;;22.90;9.68;;;7.00;85.80;;;;;;5024847;28;20216;-69
2022/11/13 06:23:39;;;;;;;18.02;8.68;;;7.00;85.70;;;;;;5027071;28;20224;-70
2022/11/13 06:26:27;;;;;;;11.95;8.32;;;7.00;85.80;;;;;;5027095;28;20239;-71
2022/11/13 06:29:14;;;;;;;22.92;9.25;;;6.90;85.80;;;;;;5024835;28;20223;-71
2022/11/13 06:32:00;;;;;;;13.20;9.05;;;6.90;85.50;;;;;;5028269;28;20900;-70
2022/11/13 06:34:47;;;;;;;31.10;9.45;;;6.90;85.80;;;;;;5024295;28;20344;-70
2022/11/13 06:37:34;;;;;;;22.08;10.68;;;6.90;85.80;;;;;;5022740;28;20240;-70
2022/11/13 06:40:21;;;;;;;15.48;9.27;;;6.90;85.50;;;;;;5024960;28;20422;-71
2022/11/13 06:43:07;;;;;;;21.60;12.18;;;6.90;85.60;;;;;;5020838;28;20275;-70
2022/11/13 06:45:54;;;;;;;19.20;11.75;;;6.80;85.50;;;;;;5022527;28;20732;-70
2022/11/13 06:48:41;;;;;;;20.58;10.05;;;6.80;85.40;;;;;;5021775;28;20725;-71
2022/11/13 06:51:29;;;;;;;34.00;12.50;;;6.80;85.30;;;;;;5018775;28;20217;-71
2022/11/13 06:54:17;;;;;;;25.27;10.93;;;6.70;85.50;;;;;;5021988;28;20287;-70
2022/11/13 06:57:04;;;;;;;25.38;9.77;;;6.70;85.50;;;;;;5019841;28;20292;-71
2022/11/13 06:59:50;;;;;;;61.28;11.43;;;6.70;85.50;;;;;;5024461;28;20228;-72
2022/11/13 07:02:37;;;;;;;96.55;12.93;;;6.70;85.40;;;;;;5023587;28;20216;-70
2022/11/13 07:05:23;;;;;;;50.00;9.82;;;6.70;85.30;;;;;;5022544;28;20363;-71
2022/11/13 07:08:10;;;;;;;58.78;10.77;;;6.70;85.30;;;;;;5026217;28;20236;-71
2022/11/13 07:10:59;;;;;;;112.53;13.30;;;6.70;85.40;;;;;;5023857;28;20239;-70
2022/11/13 07:13:46;;;;;;;99.32;14.57;;;6.70;85.20;;;;;;5024116;28;20217;-69
2022/11/13 07:16:32;;;;;;;14.30;9.55;;;6.70;85.10;;;;;;5019794;28;20346;-70
2022/11/13 07:19:39;;;;;;;10.82;7.60;;;6.60;85.00;;;;;;5020558;28;20212;-70
2022/11/13 07:22:25;;;;;;;122.90;14.30;;;6.60;85.30;;;;;;5019792;28;20306;-70
2022/11/13 07:25:12;;;;;;;132.68;14.43;;;6.70;85.30;;;;;;5022873;28;20237;-70
2022/11/13 07:27:59;;;;;;;24.42;11.45;;;6.70;85.00;;;;;;5022671;28;20232;-72
2022/11/13 07:30:46;;;;;;;53.15;13.35;;;6.70;85.00;;;;;;5023290;28;20212;-71
2022/11/13 07:33:33;;;;;;;51.03;12.88;;;6.70;85.10;;;;;;5024521;28;20977;-70
2022/11/13 07:36:20;;;;;;;21.70;8.88;;;6.70;85.00;;;;;;5022802;28;20280;-70
2022/11/13 07:39:06;;;;;;;41.28;11.45;;;6.60;84.80;;;;;;5019908;28;20286;-70
2022/11/13 07:41:52;;;;;;;41.55;10.95;;;6.60;84.60;;;;;;5022088;28;20909;-70
2022/11/13 07:44:40;;;;;;;15.98;8.35;;;6.50;84.70;;;;;;5021069;28;20216;-71
2022/11/13 07:47:40;;;;;;;29.52;9.38;;;6.50;84.80;;;;;;5025465;28;20264;-71
2022/11/13 07:50:27;;;;;;;25.23;8.73;;;6.50;85.10;;;;;;5027238;28;20299;-71
2022/11/13 07:53:14;;;;;;;43.70;9.95;;;6.60;85.00;;;;;;5028784;28;20282;-70
2022/11/13 07:56:01;;;;;;;40.63;10.27;;;6.60;85.00;;;;;;5022458;28;20736;-70
2022/11/13 07:58:48;;;;;;;23.67;9.98;;;6.60;85.00;;;;;;5025755;28;20226;-71
2022/11/13 08:01:37;;;;;;;35.38;13.43;;;6.60;84.80;;;;;;5026090;28;20224;-72
2022/11/13 08:04:23;;;;;;;33.55;12.85;;;6.60;84.80;;;;;;5026601;28;20315;-70
2022/11/13 08:07:11;;;;;;;25.40;13.30;;;6.70;84.90;;;;;;5027868;28;20244;-70
2022/11/13 08:09:58;;;;;;;18.02;12.50;;;6.70;84.80;;;;;;5026613;28;20351;-70
2022/11/13 08:12:45;;;;;;;17.73;12.65;;;6.70;84.70;;;;;;5026507;28;20224;-71
2022/11/13 08:15:32;;;;;;;21.63;15.35;;;6.70;84.80;;;;;;5029686;28;20690;-70
2022/11/13 08:18:21;;;;;;;24.65;15.57;;;6.80;85.00;;;;;;5023882;28;20728;-71
2022/11/13 08:21:07;;;;;;;28.52;15.82;;;6.80;84.70;;;;;;5026416;28;20789;-70
2022/11/13 08:24:00;;;;;;;24.75;16.38;;;6.80;84.60;;;;;;5027457;28;20278;-71
2022/11/13 08:26:46;;;;;;;24.60;15.93;;;6.80;84.60;;;;;;5025808;28;20262;-71
2022/11/13 08:29:36;;;;;;;27.48;13.52;;;6.90;84.70;;;;;;5029194;28;20212;-71
2022/11/13 08:32:22;;;;;;;15.45;10.65;;;6.90;84.30;;;;;;5026785;28;20223;-71
2022/11/13 08:35:11;;;;;;;29.45;13.48;;;6.80;84.30;;;;;;5026971;28;20223;-72
2022/11/13 08:38:05;;;;;;;21.27;13.98;;;6.80;84.30;;;;;;5027364;28;20429;-70
2022/11/13 08:40:52;;;;;;;17.10;12.50;;;6.80;84.30;;;;;;5020415;28;20609;-70
2022/11/13 08:43:39;;;;;;;20.63;13.48;;;6.80;84.40;;;;;;5018228;28;20228;-71
2022/11/13 08:46:26;;;;;;;18.50;12.20;;;6.80;84.50;;;;;;5023998;28;20240;-71
2022/11/13 08:49:12;;;;;;;16.80;12.95;;;6.90;84.60;;;;;;5028045;28;20258;-71
2022/11/13 08:52:00;;;;;;;17.05;11.60;;;6.90;84.60;;;;;;5026378;28;20220;-71
2022/11/13 08:54:47;;;;;;;14.32;9.98;;;7.00;84.60;;;;;;5022356;28;20863;-70
2022/11/13 08:57:34;;;;;;;24.70;11.30;;;7.00;84.70;;;;;;5021567;28;20225;-71
2022/11/13 09:00:21;;;;;;;15.18;11.50;;;7.10;84.60;;;;;;5026170;28;21002;-71
2022/11/13 09:03:10;;;;;;;17.05;12.85;;;7.20;84.60;;;;;;5025021;28;20276;-71
2022/11/13 09:05:57;;;;;;;16.17;11.20;;;7.20;84.60;;;;;;5025212;28;20713;-71
2022/11/13 09:08:45;;;;;;;15.23;10.75;;;7.30;84.50;;;;;;5018871;28;20239;-72
2022/11/13 09:11:31;;;;;;;17.08;10.82;;;7.30;84.50;;;;;;5022187;28;20904;-71
2022/11/13 09:14:18;;;;;;;14.23;9.32;;;7.40;84.50;;;;;;5021936;28;20577;-72
2022/11/13 09:17:04;;;;;;;12.38;9.23;;;7.40;84.50;;;;;;5019153;28;20249;-71
2022/11/13 09:19:51;;;;;;;12.18;8.80;;;7.50;84.50;;;;;;5021338;28;20215;-71
2022/11/13 09:22:37;;;;;;;17.08;7.70;;;7.50;84.50;;;;;;5022789;28;20309;-71
2022/11/13 09:25:26;;;;;;;13.18;7.60;;;7.60;84.50;;;;;;5022175;28;20221;-72
2022/11/13 09:28:15;;;;;;;9.93;7.55;;;7.60;84.50;;;;;;5020595;28;20228;-71
2022/11/13 09:31:04;;;;;;;11.90;7.78;;;7.70;84.50;;;;;;5024099;28;20212;-71
2022/11/13 09:33:51;;;;;;;21.40;10.27;;;7.70;84.50;;;;;;5017915;28;20343;-71
2022/11/13 09:36:37;;;;;;;13.40;9.30;;;7.70;84.60;;;;;;5023258;28;20232;-71
2022/11/13 09:39:24;;;;;;;12.30;8.98;;;7.80;84.50;;;;;;5028548;28;20216;-71
2022/11/13 09:42:17;;;;;;;11.33;8.23;;;7.80;84.60;;;;;;4986016;28;1109687;-71
2022/11/13 09:45:08;;;;;;;14.27;9.73;;;7.80;84.60;;;;;;5022251;28;20208;-71
2022/11/13 09:47:57;;;;;;;12.65;8.25;;;7.90;84.60;;;;;;5025646;28;20239;-71
2022/11/13 09:50:44;;;;;;;12.57;8.88;;;7.90;84.60;;;;;;5025777;28;20227;-71
2022/11/13 09:53:34;;;;;;;11.93;8.93;;;7.90;84.40;;;;;;5027899;28;20224;-71
2022/11/13 09:56:31;;;;;;;15.07;9.23;;;7.90;84.30;;;;;;5025614;28;20237;-71
2022/11/13 09:59:28;;;;;;;12.32;8.73;;;7.90;84.30;;;;;;5023616;28;20216;-71
2022/11/13 10:02:23;;;;;;;13.48;9.90;;;7.90;84.40;;;;;;5024203;28;20217;-71
2022/11/13 10:05:21;;;;;;;14.93;9.23;;;7.90;84.50;;;;;;5026622;28;20887;-71
2022/11/13 10:08:14;;;;;;;13.88;9.15;;;7.90;84.50;;;;;;5026406;28;20240;-71
2022/11/13 10:11:07;;;;;;;16.80;9.43;;;7.90;84.40;;;;;;5028574;28;20228;-71
2022/11/13 10:14:01;;;;;;;12.38;8.43;;;7.90;84.50;;;;;;5023869;28;20220;-70
2022/11/13 10:16:54;;;;;;;16.70;9.73;;;7.90;84.40;;;;;;5025687;28;20606;-71
2022/11/13 10:19:47;;;;;;;13.15;10.25;;;7.90;84.40;;;;;;5026826;28;20455;-71
2022/11/13 10:22:39;;;;;;;12.70;9.25;;;8.00;84.60;;;;;;5026954;28;20224;-71
2022/11/13 10:25:28;;;;;;;13.43;9.93;;;8.00;84.70;;;;;;5029979;28;20267;-71
2022/11/13 10:28:18;;;;;;;13.60;9.02;;;8.00;84.70;;;;;;5020947;28;20232;-71
2022/11/13 10:31:25;;;;;;;13.13;9.25;;;8.10;84.60;;;;;;5024096;28;20831;-71
2022/11/13 10:34:14;;;;;;;12.15;9.45;;;8.10;84.60;;;;;;5028295;28;20231;-71
2022/11/13 10:37:13;;;;;;;12.30;8.95;;;8.10;84.60;;;;;;5030643;28;20228;-71
2022/11/13 10:39:59;;;;;;;11.82;9.27;;;8.10;84.50;;;;;;5026438;28;20351;-70
2022/11/13 10:42:46;;;;;;;16.33;11.50;;;8.10;84.60;;;;;;5019463;28;20236;-71
2022/11/13 10:45:32;;;;;;;15.07;11.77;;;8.20;84.60;;;;;;5022835;28;20611;-71
2022/11/13 10:48:20;;;;;;;16.30;11.38;;;8.20;84.60;;;;;;5021440;28;20231;-71
2022/11/13 10:51:25;;;;;;;15.73;10.02;;;8.20;84.70;;;;;;5021003;28;20220;-71
2022/11/13 10:54:23;;;;;;;14.75;11.55;;;8.30;84.80;;;;;;5017820;28;20208;-72
2022/11/13 10:57:28;;;;;;;15.52;10.35;;;8.30;84.90;;;;;;5022608;28;20224;-71
2022/11/13 11:00:24;;;;;;;15.95;12.05;;;8.40;84.90;;;;;;5019839;28;20697;-72
2022/11/13 11:03:16;;;;;;;14.32;10.45;;;8.40;84.70;;;;;;5023545;28;20291;-72
2022/11/13 11:06:04;;;;;;;14.35;9.52;;;8.50;84.90;;;;;;5022703;28;20250;-72
2022/11/13 11:08:52;;;;;;;13.48;8.55;;;8.50;84.90;;;;;;5018158;28;21073;-72
2022/11/13 11:15:06;;;;;;;12.73;9.32;;;8.60;85.10;;;;;;5026337;28;20948;-72
2022/11/13 11:17:59;;;;;;;14.63;9.90;;;8.70;85.10;;;;;;5019977;28;20231;-71
2022/11/13 11:20:51;;;;;;;12.98;9.15;;;8.70;85.20;;;;;;5018004;28;20455;-70
2022/11/13 11:23:44;;;;;;;10.75;7.80;;;8.80;85.30;;;;;;5022263;28;20220;-72
2022/11/13 11:26:38;;;;;;;11.73;8.00;;;8.90;85.30;;;;;;5018935;28;20307;-72
2022/11/13 11:29:30;;;;;;;21.93;8.13;;;9.00;85.30;;;;;;5016084;28;20475;-71
2022/11/13 11:32:23;;;;;;;9.60;7.05;;;9.00;85.30;;;;;;5018746;28;20487;-71
2022/11/13 11:35:17;;;;;;;11.70;7.30;;;9.10;85.30;;;;;;5018514;28;20583;-72
2022/11/13 11:38:11;;;;;;;11.57;7.27;;;9.20;85.50;;;;;;5022225;28;20478;-72
2022/11/13 11:41:05;;;;;;;8.00;5.63;;;9.30;85.40;;;;;;5021752;28;20475;-72
2022/11/13 11:44:04;;;;;;;8.87;5.63;;;9.40;85.40;;;;;;5025842;28;20454;-72
2022/11/13 11:46:50;;;;;;;9.50;6.80;;;9.40;85.40;;;;;;5021265;28;20478;-72
2022/11/13 11:49:37;;;;;;;8.93;6.10;;;9.50;85.40;;;;;;5021137;28;20474;-71
2022/11/13 11:52:43;;;;;;;10.17;7.03;;;9.60;85.40;;;;;;5019129;28;20528;-72
2022/11/13 11:55:43;;;;;;;8.50;6.03;;;9.70;85.40;;;;;;5022116;28;20464;-70
2022/11/13 11:58:55;;;;;;;11.93;7.83;;;9.70;85.30;;;;;;5018098;28;20453;-71
2022/11/13 12:02:13;;;;;;;10.03;5.67;;;9.80;85.20;;;;;;5017674;28;20557;-72
2022/11/13 12:05:25;;;;;;;12.17;5.80;;;9.90;85.10;;;;;;5017022;28;21142;-73
2022/11/13 12:08:25;;;;;;;8.67;5.03;;;10.00;85.10;;;;;;5019217;28;20585;-71
2022/11/13 12:11:20;;;;;;;12.87;4.83;;;10.10;85.10;;;;;;5016389;28;20456;-72
2022/11/13 12:14:20;;;;;;;7.33;4.27;;;10.20;84.90;;;;;;5018638;28;20451;-72
2022/11/13 12:17:27;;;;;;;11.00;6.00;;;10.20;84.80;;;;;;5020097;28;21332;-71
2022/11/13 12:20:25;;;;;;;19.97;8.47;;;10.30;84.50;;;;;;5023934;28;20832;-72
2022/11/13 12:23:26;;;;;;;16.83;8.60;;;10.40;84.40;;;;;;5022003;28;20455;-70
2022/11/13 12:26:19;;;;;;;23.70;8.93;;;10.40;84.40;;;;;;5017307;28;21123;-72
2022/11/13 12:29:16;;;;;;;8.20;4.23;;;10.50;84.30;;;;;;5017135;28;20475;-72
2022/11/13 12:32:15;;;;;;;6.20;3.90;;;10.50;83.30;;;;;;5023876;28;20483;-70
2022/11/13 12:35:08;;;;;;;6.27;3.90;;;10.60;83.80;;;;;;5022936;28;20463;-72
2022/11/13 12:38:00;;;;;;;8.37;4.60;;;10.70;83.40;;;;;;5024778;28;20503;-72
2022/11/13 12:40:50;;;;;;;6.47;3.80;;;10.80;83.20;;;;;;5024676;28;21040;-71
2022/11/13 12:43:53;;;;;;;7.17;4.30;;;10.90;83.30;;;;;;5020969;28;20529;-71
2022/11/13 12:46:41;;;;;;;8.87;4.30;;;10.90;82.90;;;;;;5024216;28;21070;-71
2022/11/13 12:49:34;;;;;;;8.20;4.50;;;10.90;82.20;;;;;;5025962;28;20528;-71
2022/11/13 12:52:23;;;;;;;6.53;3.83;;;10.90;82.20;;;;;;5021864;28;20978;-70
2022/11/13 12:55:25;;;;;;;7.07;3.97;;;11.00;81.80;;;;;;5024173;28;20795;-70
2022/11/13 12:58:20;;;;;;;7.63;4.10;;;11.10;82.20;;;;;;5022817;28;20483;-70
2022/11/13 13:01:16;;;;;;;7.50;4.67;;;11.20;81.70;;;;;;5020424;28;20601;-73
2022/11/13 13:04:39;;;;;;;7.33;4.13;;;11.20;81.00;;;;;;5023864;28;20455;-73
2022/11/13 13:07:42;;;;;;;8.87;4.57;;;11.30;81.00;;;;;;5024721;28;21037;-73
2022/11/13 13:10:36;;;;;;;7.33;4.80;;;11.30;80.50;;;;;;5029969;28;20631;-74
2022/11/13 13:13:31;;;;;;;10.03;5.27;;;11.30;80.60;;;;;;5022030;28;20458;-72
2022/11/13 13:16:24;;;;;;;8.67;4.80;;;11.40;80.50;;;;;;5025814;28;20478;-74
2022/11/13 13:19:25;;;;;;;6.80;4.20;;;11.40;80.10;;;;;;5023301;28;20443;-73
2022/11/13 13:22:25;;;;;;;8.70;4.27;;;11.40;79.70;;;;;;5029138;28;20606;-74
2022/11/13 13:25:25;;;;;;;7.90;4.83;;;11.50;79.60;;;;;;5027421;28;20435;-73
2022/11/13 13:28:20;;;;;;;7.80;5.10;;;11.50;79.40;;;;;;5027191;28;20622;-72
2022/11/13 13:31:19;;;;;;;8.10;4.67;;;11.50;79.20;;;;;;5018293;28;20452;-74
2022/11/13 13:34:22;;;;;;;7.57;5.30;;;11.50;78.70;;;;;;5022899;28;20520;-74
2022/11/13 13:37:20;;;;;;;9.90;6.77;;;11.60;78.90;;;;;;5028340;28;20510;-74
2022/11/13 13:40:20;;;;;;;13.73;8.80;;;11.60;78.80;;;;;;5027013;28;20813;-74
2022/11/13 13:43:23;;;;;;;22.47;14.03;;;11.60;78.50;;;;;;5025098;28;20561;-71
2022/11/13 13:46:15;;;;;;;21.97;12.90;;;11.70;78.50;;;;;;5028731;28;20451;-72
2022/11/13 13:49:05;;;;;;;14.10;8.70;;;11.70;78.30;;;;;;5035448;28;20555;-72
2022/11/13 13:51:54;;;;;;;11.70;8.20;;;11.70;78.20;;;;;;5022520;28;20447;-72
2022/11/13 13:54:44;;;;;;;14.47;9.03;;;11.70;78.20;;;;;;5027199;28;20467;-72
2022/11/13 13:57:30;;;;;;;11.03;6.50;;;11.80;78.10;;;;;;5024472;28;20561;-72
2022/11/13 14:00:20;;;;;;;8.83;5.83;;;11.80;77.80;;;;;;5021538;28;21099;-72
2022/11/13 14:03:18;;;;;;;9.80;6.07;;;11.80;77.90;;;;;;5022856;28;20460;-74
2022/11/13 14:06:26;;;;;;;10.27;6.50;;;11.80;77.80;;;;;;5027542;28;20460;-74
2022/11/13 14:09:18;;;;;;;12.87;7.27;;;11.90;77.60;;;;;;5026002;28;20999;-74
2022/11/13 14:12:17;;;;;;;8.57;5.17;;;11.90;77.60;;;;;;5025611;28;20447;-72
2022/11/13 14:15:05;;;;;;;13.90;6.43;;;11.90;77.50;;;;;;5022111;28;20444;-73
2022/11/13 14:17:52;;;;;;;9.20;5.40;;;11.90;77.30;;;;;;5027952;28;20475;-73
2022/11/13 14:20:42;;;;;;;8.00;5.27;;;11.90;77.20;;;;;;5028147;28;20458;-74
2022/11/13 14:23:32;;;;;;;10.03;5.73;;;11.90;77.10;;;;;;5025534;28;20525;-74
2022/11/13 14:26:19;;;;;;;13.13;7.00;;;11.90;77.10;;;;;;5023646;28;20501;-73
2022/11/13 14:29:22;;;;;;;12.67;7.70;;;11.90;77.00;;;;;;5031290;28;20479;-73
2022/11/13 14:32:21;;;;;;;9.60;5.93;;;11.90;76.80;;;;;;5024321;28;20443;-73
2022/11/13 14:35:17;;;;;;;16.83;8.13;;;11.80;76.80;;;;;;5022732;28;20463;-74
2022/11/13 14:38:04;;;;;;;13.73;7.77;;;11.80;76.70;;;;;;5014940;28;20544;-73
2022/11/13 14:40:51;;;;;;;9.10;5.80;;;11.80;76.70;;;;;;5025210;28;20451;-74